Time;durP1;ratioP1;P1;durP2;ratioP2;P2;SDS_P1;SDS_P2;PMS_P1;PMS_P2;Temp;Humidity;BMP_temperature;BMP_pressure;BME280_temperature;BME280_humidity;BME280_pressure;Samples;Min_cycle;Max_cycle;Signal;HPM_P1;HPM_P2
2023/11/11 00:01:33;;;;;;;;;;;7.00;89.30;;;;;;5108418;28;19920;-77
2023/11/11 00:03:59;;;;;;;;;;;7.00;89.30;;;;;;5108617;28;19912;-77
2023/11/11 00:06:24;;;;;;;;;;;7.00;89.30;;;;;;5109117;28;19915;-72
2023/11/11 00:08:50;;;;;;;;;;;6.90;89.30;;;;;;5089769;28;19927;-72
2023/11/11 00:11:16;;;;;;;;;;;6.90;89.30;;;;;;5108060;28;20445;-72
2023/11/11 00:13:41;;;;;;;;;;;6.90;89.30;;;;;;5108393;28;20064;-72
2023/11/11 00:16:07;;;;;;;;;;;6.90;89.30;;;;;;5108072;28;19934;-72
2023/11/11 00:18:33;;;;;;;;;;;6.80;89.30;;;;;;5108340;28;19938;-72
2023/11/11 00:21:00;;;;;;;;;;;6.80;89.30;;;;;;5108125;28;20266;-72
2023/11/11 00:23:26;;;;;;;;;;;6.80;89.30;;;;;;5108184;28;19912;-72
2023/11/11 00:25:51;;;;;;;;;;;6.80;89.30;;;;;;5089943;28;19933;-72
2023/11/11 00:28:17;;;;;;;;;;;6.80;89.30;;;;;;5108180;28;20372;-72
2023/11/11 00:30:44;;;;;;;;;;;6.70;89.20;;;;;;5108191;28;19912;-72
2023/11/11 00:33:10;;;;;;;;;;;6.80;89.30;;;;;;5089645;28;20099;-72
2023/11/11 00:35:36;;;;;;;;;;;6.70;89.20;;;;;;5089711;28;19947;-72
2023/11/11 00:38:04;;;;;;;;;;;6.70;89.20;;;;;;5107872;28;20433;-72
2023/11/11 00:40:29;;;;;;;;;;;6.70;89.20;;;;;;5090109;28;20115;-72
2023/11/11 00:42:55;;;;;;;;;;;6.70;89.20;;;;;;5108029;28;19911;-72
2023/11/11 00:45:22;;;;;;;;;;;6.70;89.30;;;;;;5089755;28;19919;-72
2023/11/11 00:47:48;;;;;;;;;;;6.70;89.20;;;;;;5108174;28;19941;-72
2023/11/11 00:50:13;;;;;;;;;;;6.60;89.10;;;;;;5107979;28;20303;-72
2023/11/11 00:52:39;;;;;;;;;;;6.60;89.10;;;;;;5089627;28;19920;-72
2023/11/11 00:55:07;;;;;;;;;;;6.60;89.10;;;;;;5108022;28;20318;-72
2023/11/11 00:57:32;;;;;;;;;;;6.50;89.00;;;;;;5108400;28;19971;-72
2023/11/11 00:59:58;;;;;;;;;;;6.50;89.10;;;;;;5111592;28;20287;-72
2023/11/11 01:02:24;;;;;;;;;;;6.50;89.10;;;;;;5111660;28;19937;-72
2023/11/11 01:04:49;;;;;;;;;;;6.50;89.10;;;;;;5093370;28;19961;-72
2023/11/11 01:07:15;;;;;;;;;;;6.40;89.10;;;;;;5111372;28;19912;-72
2023/11/11 01:09:41;;;;;;;;;;;6.40;89.10;;;;;;5093074;28;20426;-72
2023/11/11 01:12:07;;;;;;;;;;;6.40;89.10;;;;;;5093198;28;20287;-72
2023/11/11 01:14:34;;;;;;;;;;;6.40;89.00;;;;;;5111423;28;19916;-72
2023/11/11 01:17:02;;;;;;;;;;;6.40;89.10;;;;;;5093284;28;19912;-72
2023/11/11 01:19:28;;;;;;;;;;;6.40;89.10;;;;;;5111336;28;19933;-72
2023/11/11 01:21:54;;;;;;;;;;;6.40;89.10;;;;;;5093043;28;20294;-72
2023/11/11 01:24:19;;;;;;;;;;;6.30;89.00;;;;;;5111216;28;19915;-72
2023/11/11 01:26:45;;;;;;;;;;;6.30;89.00;;;;;;5092693;28;19908;-72
2023/11/11 01:29:11;;;;;;;;;;;6.30;89.10;;;;;;5092750;28;19935;-72
2023/11/11 01:31:37;;;;;;;;;;;6.30;89.10;;;;;;5092722;28;19929;-72
2023/11/11 01:34:04;;;;;;;;;;;6.30;89.10;;;;;;5093066;28;20371;-72
2023/11/11 01:36:30;;;;;;;;;;;6.30;89.10;;;;;;5092970;28;20371;-72
2023/11/11 01:38:55;;;;;;;;;;;6.30;89.10;;;;;;5110919;28;19915;-72
2023/11/11 01:41:21;;;;;;;;;;;6.20;89.00;;;;;;5111146;28;19912;-72
2023/11/11 01:43:47;;;;;;;;;;;6.20;89.00;;;;;;5110697;28;19916;-72
2023/11/11 01:46:12;;;;;;;;;;;6.20;89.10;;;;;;5110809;28;19947;-72
2023/11/11 01:48:40;;;;;;;;;;;6.20;89.20;;;;;;5092482;28;19971;-72
2023/11/11 01:51:06;;;;;;;;;;;6.20;89.40;;;;;;5110541;28;19994;-72
2023/11/11 01:53:33;;;;;;;;;;;6.30;89.50;;;;;;5110563;28;19998;-72
2023/11/11 01:55:59;;;;;;;;;;;6.30;89.40;;;;;;5109713;28;19908;-72
2023/11/11 01:58:26;;;;;;;;;;;6.40;89.30;;;;;;5110191;28;20352;-72
2023/11/11 02:00:52;;;;;;;;;;;6.40;89.20;;;;;;5110282;28;19951;-73
2023/11/11 02:03:20;;;;;;;;;;;6.30;89.10;;;;;;5110131;28;19981;-73
2023/11/11 02:05:46;;;;;;;;;;;6.30;89.10;;;;;;5091819;28;19959;-73
2023/11/11 02:08:12;;;;;;;;;;;6.30;89.20;;;;;;5110293;28;20310;-73
2023/11/11 02:10:38;;;;;;;;;;;6.30;89.20;;;;;;5109137;28;19946;-73
2023/11/11 02:13:05;;;;;;;;;;;6.20;89.20;;;;;;5091668;28;19924;-73
2023/11/11 02:15:31;;;;;;;;;;;6.20;89.30;;;;;;5091809;28;20009;-72
2023/11/11 02:18:02;;;;;;;;;;;6.30;89.50;;;;;;5074828;28;19912;-72
2023/11/11 02:20:29;;;;;;;;;;;6.40;89.60;;;;;;5109955;28;19915;-72
2023/11/11 02:22:55;;;;;;;;;;;6.60;89.70;;;;;;5109940;28;19918;-72
2023/11/11 02:25:20;;;;;;;;;;;6.60;89.50;;;;;;5109821;28;20006;-72
2023/11/11 02:27:47;;;;;;;;;;;6.70;89.40;;;;;;5109892;28;19923;-72
2023/11/11 02:30:12;;;;;;;;;;;6.70;89.30;;;;;;5091611;28;19916;-72
2023/11/11 02:32:38;;;;;;;;;;;6.70;89.20;;;;;;5109597;28;19994;-72
2023/11/11 02:35:04;;;;;;;;;;;6.80;89.30;;;;;;5091566;28;20386;-72
2023/11/11 02:37:30;;;;;;;;;;;6.80;89.30;;;;;;5091234;28;19923;-72
2023/11/11 02:39:55;;;;;;;;;;;6.80;89.40;;;;;;5109585;28;19912;-72
2023/11/11 02:42:21;;;;;;;;;;;6.90;89.50;;;;;;5091391;28;19916;-73
2023/11/11 02:44:47;;;;;;;;;;;6.90;89.50;;;;;;5109849;28;20466;-72
2023/11/11 02:47:12;;;;;;;;;;;7.00;89.50;;;;;;5109324;28;19938;-72
2023/11/11 02:49:38;;;;;;;;;;;7.00;89.40;;;;;;5109474;28;19956;-72
2023/11/11 02:52:04;;;;;;;;;;;7.00;89.40;;;;;;5091022;28;19920;-72
2023/11/11 02:54:29;;;;;;;;;;;7.00;89.80;;;;;;5109368;28;19916;-72
2023/11/11 02:56:55;;;;;;;;;;;7.10;89.50;;;;;;5090999;28;19912;-72
2023/11/11 02:59:20;;;;;;;;;;;7.10;89.40;;;;;;5109221;28;19964;-72
2023/11/11 03:01:46;;;;;;;;;;;7.10;89.50;;;;;;5109120;28;19951;-72
2023/11/11 03:04:14;;;;;;;;;;;7.10;89.50;;;;;;5109319;28;19916;-72
2023/11/11 03:06:43;;;;;;;;;;;7.20;89.50;;;;;;5090542;28;19922;-72
2023/11/11 03:09:12;;;;;;;;;;;7.20;89.40;;;;;;5109190;28;19927;-72
2023/11/11 03:11:37;;;;;;;;;;;7.20;89.40;;;;;;5108944;28;19922;-72
2023/11/11 03:14:03;;;;;;;;;;;7.20;89.30;;;;;;5090698;28;20002;-72
2023/11/11 03:16:36;;;;;;;;;;;7.10;89.10;;;;;;5108822;28;19908;-72
2023/11/11 03:19:02;;;;;;;;;;;7.10;89.20;;;;;;5108854;28;19949;-72
2023/11/11 03:21:28;;;;;;;;;;;7.00;89.20;;;;;;5108365;28;19908;-72
2023/11/11 03:23:55;;;;;;;;;;;7.00;89.20;;;;;;5108909;28;19927;-72
2023/11/11 03:26:21;;;;;;;;;;;6.90;89.10;;;;;;5073742;28;19912;-72
2023/11/11 03:28:49;;;;;;;;;;;6.80;89.20;;;;;;5108707;28;20062;-72
2023/11/11 03:31:17;;;;;;;;;;;6.80;89.30;;;;;;5108410;28;19964;-72
2023/11/11 03:33:42;;;;;;;;;;;6.70;89.30;;;;;;5108609;28;20013;-72
2023/11/11 03:36:08;;;;;;;;;;;6.70;89.20;;;;;;5108556;28;20337;-72
2023/11/11 03:38:33;;;;;;;;;;;6.60;89.20;;;;;;5108734;28;19916;-72
2023/11/11 03:40:59;;;;;;;;;;;6.60;89.30;;;;;;5108580;28;20391;-72
2023/11/11 03:43:24;;;;;;;;;;;6.50;89.30;;;;;;5090432;28;19964;-72
2023/11/11 03:45:50;;;;;;;;;;;6.50;89.40;;;;;;5108405;28;19916;-72
2023/11/11 03:48:15;;;;;;;;;;;6.50;89.30;;;;;;5108560;28;19912;-72
2023/11/11 03:50:41;;;;;;;;;;;6.50;89.30;;;;;;5108924;28;19993;-72
2023/11/11 03:53:07;;;;;;;;;;;6.40;89.20;;;;;;5108301;28;19916;-72
2023/11/11 03:55:32;;;;;;;;;;;6.40;89.20;;;;;;5108500;28;19924;-72
2023/11/11 03:57:58;;;;;;;;;;;6.40;89.20;;;;;;5108382;28;19911;-72
2023/11/11 04:00:23;;;;;;;;;;;6.40;89.20;;;;;;5108640;28;19912;-72
2023/11/11 04:02:49;;;;;;;;;;;6.40;89.20;;;;;;5108315;28;19950;-72
2023/11/11 04:05:15;;;;;;;;;;;6.40;89.20;;;;;;5108196;28;19912;-72
2023/11/11 04:07:40;;;;;;;;;;;6.30;89.10;;;;;;5108071;28;19924;-72
2023/11/11 04:10:07;;;;;;;;;;;6.20;89.10;;;;;;5108264;28;19922;-72
2023/11/11 04:12:33;;;;;;;;;;;6.10;89.30;;;;;;5108175;28;19919;-72
2023/11/11 04:14:59;;;;;;;;;;;6.10;89.40;;;;;;5090054;28;19912;-72
2023/11/11 04:17:25;;;;;;;;;;;6.00;89.40;;;;;;5108216;28;19961;-72
2023/11/11 04:19:50;;;;;;;;;;;6.00;89.30;;;;;;5108447;28;19911;-72
2023/11/11 04:22:16;;;;;;;;;;;6.10;89.30;;;;;;5107996;28;19908;-72
2023/11/11 04:24:42;;;;;;;;;;;6.00;89.20;;;;;;5108075;28;19907;-72
2023/11/11 04:27:08;;;;;;;;;;;6.10;89.20;;;;;;5108080;28;20283;-72
2023/11/11 04:29:34;;;;;;;;;;;6.00;89.10;;;;;;5090024;28;19920;-72
2023/11/11 04:31:59;;;;;;;;;;;6.00;89.10;;;;;;5108225;28;19916;-72
2023/11/11 04:34:28;;;;;;;;;;;6.00;89.10;;;;;;5111768;28;19920;-72
2023/11/11 04:36:55;;;;;;;;;;;6.00;89.10;;;;;;5093736;28;19947;-72
2023/11/11 04:39:21;;;;;;;;;;;6.00;89.10;;;;;;5112130;28;19951;-72
2023/11/11 04:41:47;;;;;;;;;;;6.00;89.10;;;;;;5111958;28;20398;-72
2023/11/11 04:44:13;;;;;;;;;;;6.00;89.20;;;;;;5093721;28;19976;-72
2023/11/11 04:46:39;;;;;;;;;;;6.00;89.20;;;;;;5111909;28;19965;-72
2023/11/11 04:49:05;;;;;;;;;;;6.00;89.20;;;;;;5111827;28;19919;-72
2023/11/11 04:51:30;;;;;;;;;;;6.00;89.20;;;;;;5111782;28;19942;-72
2023/11/11 04:53:56;;;;;;;;;;;6.00;89.10;;;;;;5111830;28;20329;-72
2023/11/11 04:56:21;;;;;;;;;;;6.00;89.10;;;;;;5093426;28;19947;-72
2023/11/11 04:58:48;;;;;;;;;;;6.00;89.10;;;;;;5093231;28;20002;-72
2023/11/11 05:01:14;;;;;;;;;;;6.00;89.10;;;;;;5111537;28;20015;-72
2023/11/11 05:03:40;;;;;;;;;;;6.00;89.10;;;;;;5093607;28;19912;-72
2023/11/11 05:06:06;;;;;;;;;;;5.90;89.10;;;;;;5076343;28;20264;-72
2023/11/11 05:08:32;;;;;;;;;;;5.90;89.10;;;;;;5093093;28;20291;-72
2023/11/11 05:10:58;;;;;;;;;;;5.90;89.10;;;;;;5111360;28;19912;-72
2023/11/11 05:13:24;;;;;;;;;;;5.80;89.00;;;;;;5092902;28;19966;-72
2023/11/11 05:15:59;;;;;;;;;;;5.80;89.10;;;;;;5093212;28;19941;-71
2023/11/11 05:18:25;;;;;;;;;;;5.70;89.30;;;;;;5111440;28;20359;-72
2023/11/11 05:20:51;;;;;;;;;;;5.60;89.20;;;;;;5111399;28;19911;-72
2023/11/11 05:23:17;;;;;;;;;;;5.60;89.40;;;;;;5111523;28;20324;-72
2023/11/11 05:25:42;;;;;;;;;;;5.50;89.90;;;;;;5111196;28;19908;-72
2023/11/11 05:28:08;;;;;;;;;;;5.50;89.40;;;;;;5092686;28;20248;-72
2023/11/11 05:30:34;;;;;;;;;;;5.40;89.40;;;;;;5111169;28;19922;-72
2023/11/11 05:33:00;;;;;;;;;;;5.40;89.40;;;;;;5110943;28;19912;-72
2023/11/11 05:35:25;;;;;;;;;;;5.40;89.40;;;;;;5092685;28;19916;-72
2023/11/11 05:37:53;;;;;;;;;;;5.40;89.30;;;;;;5092854;28;19908;-72
2023/11/11 05:40:19;;;;;;;;;;;5.40;89.40;;;;;;5093024;28;19912;-72
2023/11/11 05:42:47;;;;;;;;;;;5.40;89.20;;;;;;5110746;28;20283;-72
2023/11/11 05:45:13;;;;;;;;;;;5.40;89.20;;;;;;5110490;28;20245;-72
2023/11/11 05:47:38;;;;;;;;;;;5.40;89.20;;;;;;5110642;28;19911;-72
2023/11/11 05:50:05;;;;;;;;;;;5.40;89.10;;;;;;5110780;28;19937;-72
2023/11/11 05:52:30;;;;;;;;;;;5.40;89.10;;;;;;5110356;28;19915;-72
2023/11/11 05:54:56;;;;;;;;;;;5.30;89.00;;;;;;5110483;28;20416;-72
2023/11/11 05:57:22;;;;;;;;;;;5.30;89.00;;;;;;5110561;28;20006;-72
2023/11/11 05:59:48;;;;;;;;;;;5.30;89.10;;;;;;5110518;28;20351;-71
2023/11/11 06:02:15;;;;;;;;;;;5.30;89.00;;;;;;5110565;28;19923;-72
2023/11/11 06:04:41;;;;;;;;;;;5.30;89.00;;;;;;5110195;28;19912;-72
2023/11/11 06:07:07;;;;;;;;;;;5.20;88.80;;;;;;5092774;28;19912;-71
2023/11/11 06:09:35;;;;;;;;;;;5.30;88.80;;;;;;5110511;28;20011;-72
2023/11/11 06:12:01;;;;;;;;;;;5.20;88.70;;;;;;5110421;28;19920;-72
2023/11/11 06:14:27;;;;;;;;;;;5.10;88.70;;;;;;5092075;28;19908;-72
2023/11/11 06:16:53;;;;;;;;;;;5.10;88.90;;;;;;5110461;28;20420;-71
2023/11/11 06:19:19;;;;;;;;;;;5.10;89.00;;;;;;5110491;28;20443;-71
2023/11/11 06:21:45;;;;;;;;;;;5.10;89.40;;;;;;5110380;28;19908;-72
2023/11/11 06:24:12;;;;;;;;;;;5.10;89.00;;;;;;5110211;28;19981;-72
2023/11/11 06:26:38;;;;;;;;;;;5.10;89.00;;;;;;5092049;28;20260;-72
2023/11/11 06:29:06;;;;;;;;;;;5.10;89.00;;;;;;5110353;28;19916;-72
2023/11/11 06:31:32;;;;;;;;;;;5.10;89.00;;;;;;5110062;28;19912;-72
2023/11/11 06:33:58;;;;;;;;;;;5.10;88.90;;;;;;5109747;28;20339;-72
2023/11/11 06:36:24;;;;;;;;;;;5.10;88.80;;;;;;5109614;28;20325;-72
2023/11/11 06:38:50;;;;;;;;;;;5.10;88.90;;;;;;5109692;28;19912;-72
2023/11/11 06:41:17;;;;;;;;;;;5.00;88.90;;;;;;5109522;28;20338;-72
2023/11/11 06:43:42;;;;;;;;;;;5.00;89.00;;;;;;5109585;28;19922;-72
2023/11/11 06:46:08;;;;;;;;;;;5.00;89.00;;;;;;5109160;28;20007;-72
2023/11/11 06:48:34;;;;;;;;;;;5.00;89.00;;;;;;5109503;28;19919;-72
2023/11/11 06:50:59;;;;;;;;;;;5.10;89.00;;;;;;5109333;28;19908;-72
2023/11/11 06:53:25;;;;;;;;;;;5.10;89.00;;;;;;5109305;28;19923;-72
2023/11/11 06:55:51;;;;;;;;;;;5.10;89.40;;;;;;5108628;28;20356;-72
2023/11/11 06:58:17;;;;;;;;;;;5.20;88.90;;;;;;5091075;28;19908;-72
2023/11/11 07:00:42;;;;;;;;;;;5.10;88.90;;;;;;5109226;28;19919;-72
2023/11/11 07:03:11;;;;;;;;;;;5.20;89.10;;;;;;5090812;28;20011;-72
2023/11/11 07:05:36;;;;;;;;;;;5.20;89.10;;;;;;5108961;28;19911;-72
2023/11/11 07:08:05;;;;;;;;;;;5.20;88.90;;;;;;5090609;28;19984;-72
2023/11/11 07:10:34;;;;;;;;;;;5.30;88.80;;;;;;5091001;28;20010;-72
2023/11/11 07:13:00;;;;;;;;;;;5.30;88.90;;;;;;5090793;28;20283;-71
2023/11/11 07:15:27;;;;;;;;;;;5.30;88.90;;;;;;5109090;28;19908;-71
2023/11/11 07:17:53;;;;;;;;;;;5.20;88.80;;;;;;5090592;28;19912;-71
2023/11/11 07:20:21;;;;;;;;;;;5.20;88.80;;;;;;5109166;28;19915;-71
2023/11/11 07:22:49;;;;;;;;;;;5.20;88.80;;;;;;5090465;28;19908;-71
2023/11/11 07:25:16;;;;;;;;;;;5.20;88.90;;;;;;5108808;28;19911;-72
2023/11/11 07:27:41;;;;;;;;;;;5.20;88.80;;;;;;5108579;28;19919;-71
2023/11/11 07:30:12;;;;;;;;;;;5.30;88.80;;;;;;5090391;28;19961;-72
2023/11/11 07:32:38;;;;;;;;;;;5.30;88.80;;;;;;5091096;28;19925;-72
2023/11/11 07:35:06;;;;;;;;;;;5.20;88.80;;;;;;5073392;28;19943;-71
2023/11/11 07:37:32;;;;;;;;;;;5.20;88.80;;;;;;5108687;28;20013;-71
2023/11/11 07:39:59;;;;;;;;;;;5.10;88.70;;;;;;5090198;28;19959;-71
2023/11/11 07:42:24;;;;;;;;;;;5.10;88.60;;;;;;5108569;28;19990;-71
2023/11/11 07:44:50;;;;;;;;;;;5.10;88.60;;;;;;5090458;28;20007;-71
2023/11/11 07:47:15;;;;;;;;;;;5.10;88.60;;;;;;5089854;28;19934;-71
2023/11/11 07:49:43;;;;;;;;;;;5.00;88.60;;;;;;5108654;28;20431;-71
2023/11/11 07:52:09;;;;;;;;;;;5.00;88.70;;;;;;5108400;28;19954;-72
2023/11/11 07:54:35;;;;;;;;;;;5.00;88.70;;;;;;5089890;28;19943;-71
2023/11/11 07:57:02;;;;;;;;;;;5.00;88.70;;;;;;5108054;28;19969;-71
2023/11/11 07:59:29;;;;;;;;;;;5.00;89.20;;;;;;5108361;28;19914;-72
2023/11/11 08:01:55;;;;;;;;;;;4.90;89.10;;;;;;5108330;28;19915;-71
2023/11/11 08:04:21;;;;;;;;;;;4.90;88.70;;;;;;5108194;28;19915;-69
2023/11/11 08:06:46;;;;;;;;;;;5.00;88.80;;;;;;5109475;28;20336;-71
2023/11/11 08:09:12;;;;;;;;;;;4.90;88.70;;;;;;5112495;28;19924;-71
2023/11/11 08:11:38;;;;;;;;;;;4.90;88.60;;;;;;5094280;28;20017;-72
2023/11/11 08:14:05;;;;;;;;;;;4.90;88.60;;;;;;5094483;28;20363;-72
2023/11/11 08:16:31;;;;;;;;;;;5.00;88.70;;;;;;5112287;28;20023;-72
2023/11/11 08:18:56;;;;;;;;;;;5.00;88.90;;;;;;5112233;28;19942;-72
2023/11/11 08:21:29;;;;;;;;;;;5.00;89.00;;;;;;5112496;28;19944;-72
2023/11/11 08:23:55;;;;;;;;;;;5.10;89.00;;;;;;5112395;28;19915;-72
2023/11/11 08:26:21;;;;;;;;;;;5.10;89.00;;;;;;5093832;28;20360;-72
2023/11/11 08:28:46;;;;;;;;;;;5.20;89.10;;;;;;5111912;28;20291;-72
2023/11/11 08:31:12;;;;;;;;;;;5.20;89.00;;;;;;5093961;28;19934;-72
2023/11/11 08:33:37;;;;;;;;;;;5.30;89.00;;;;;;5111952;28;20412;-72
2023/11/11 08:36:03;;;;;;;;;;;5.30;89.00;;;;;;5111894;28;19931;-72
2023/11/11 08:38:29;;;;;;;;;;;5.40;89.20;;;;;;5093640;28;19912;-72
2023/11/11 08:40:54;;;;;;;;;;;5.50;89.20;;;;;;5112655;28;20356;-72
2023/11/11 08:43:20;;;;;;;;;;;5.60;89.40;;;;;;5112113;28;20302;-72
2023/11/11 08:45:46;;;;;;;;;;;5.70;89.60;;;;;;5111815;28;19937;-72
2023/11/11 08:48:13;;;;;;;;;;;5.80;89.60;;;;;;5111739;28;19908;-72
2023/11/11 08:50:39;;;;;;;;;;;5.90;89.50;;;;;;5111519;28;19972;-72
2023/11/11 08:53:05;;;;;;;;;;;6.00;89.70;;;;;;5111520;28;20387;-72
2023/11/11 08:55:31;;;;;;;;;;;6.10;89.70;;;;;;5111367;28;19961;-72
2023/11/11 08:57:57;;;;;;;;;;;6.30;89.90;;;;;;5093100;28;19912;-72
2023/11/11 09:00:23;;;;;;;;;;;6.40;90.10;;;;;;5111273;28;19912;-72
2023/11/11 09:02:49;;;;;;;;;;;6.70;90.40;;;;;;5111121;28;20270;-72
2023/11/11 09:05:14;;;;;;;;;;;7.20;90.70;;;;;;5110441;28;20313;-72
2023/11/11 09:07:40;;;;;;;;;;;7.90;91.10;;;;;;5110590;28;19935;-72
2023/11/11 09:10:06;;;;;;;;;;;8.80;91.40;;;;;;5110923;28;20011;-73
2023/11/11 09:12:32;;;;;;;;;;;9.60;91.40;;;;;;5110238;28;19912;-73
2023/11/11 09:14:57;;;;;;;;;;;10.40;91.20;;;;;;5075351;28;20157;-73
2023/11/11 09:17:24;;;;;;;;;;;10.80;90.70;;;;;;5110645;28;19911;-72
2023/11/11 09:19:50;;;;;;;;;;;10.80;90.20;;;;;;5110002;28;19916;-73
2023/11/11 09:22:15;;;;;;;;;;;10.70;90.10;;;;;;5110821;28;19908;-73
2023/11/11 09:24:41;;;;;;;;;;;10.70;90.10;;;;;;5110382;28;19912;-73
2023/11/11 09:27:07;;;;;;;;;;;10.50;90.00;;;;;;5110169;28;19939;-73
2023/11/11 09:29:32;;;;;;;;;;;10.40;90.10;;;;;;5110868;28;19923;-72
2023/11/11 09:31:58;;;;;;;;;;;10.40;90.40;;;;;;5092153;28;19927;-73
2023/11/11 09:34:24;;;;;;;;;;;10.50;90.40;;;;;;5110577;28;19914;-73
2023/11/11 09:36:50;;;;;;;;;;;10.40;90.20;;;;;;5110025;28;19916;-73
2023/11/11 09:39:17;;;;;;;;;;;10.30;90.00;;;;;;5110404;28;19927;-73
2023/11/11 09:41:43;;;;;;;;;;;10.00;89.90;;;;;;5110639;28;19916;-73
2023/11/11 09:44:09;;;;;;;;;;;9.90;90.00;;;;;;5109809;28;19933;-69
2023/11/11 09:47:00;;;;;;;;;;;9.70;90.00;;;;;;5109699;28;19915;-71
2023/11/11 09:49:27;;;;;;;;;;;9.50;90.00;;;;;;5106306;28;19966;-73
2023/11/11 09:51:54;;;;;;;;;;;9.20;89.60;;;;;;5075599;28;19973;-73
2023/11/11 09:54:19;;;;;;;;;;;9.10;89.80;;;;;;5095148;28;19919;-73
2023/11/11 09:56:45;;;;;;;;;;;8.90;89.60;;;;;;5072150;28;19912;-73
2023/11/11 09:59:11;;;;;;;;;;;8.70;89.30;;;;;;5089875;28;19916;-73
2023/11/11 10:01:40;;;;;;;;;;;8.50;89.50;;;;;;5072198;28;19914;-73
2023/11/11 10:04:06;;;;;;;;;;;8.30;89.80;;;;;;5090710;28;19912;-73
2023/11/11 10:06:35;;;;;;;;;;;8.30;90.10;;;;;;5090564;28;20390;-72
2023/11/11 10:09:02;;;;;;;;;;;8.40;90.30;;;;;;5089824;28;19930;-72
2023/11/11 10:11:28;;;;;;;;;;;8.50;90.30;;;;;;5090285;28;20268;-73
2023/11/11 10:13:54;;;;;;;;;;;8.60;90.30;;;;;;5090106;28;19927;-73
2023/11/11 10:16:25;;;;;;;;;;;8.70;90.20;;;;;;5089164;28;19909;-72
2023/11/11 10:18:51;;;;;;;;;;;8.70;90.10;;;;;;5074351;28;19923;-73
2023/11/11 10:21:20;;;;;;;;;;;8.70;90.10;;;;;;5109096;28;19908;-72
2023/11/11 10:23:49;;;;;;;;;;;8.70;90.10;;;;;;5110129;28;19947;-79
2023/11/11 10:26:20;;;;;;;;;;;8.70;90.10;;;;;;5108848;28;19927;-73
2023/11/11 10:28:56;;;;;;;;;;;8.70;90.00;;;;;;5104140;28;19942;-73
2023/11/11 10:31:22;;;;;;;;;;;8.70;90.10;;;;;;5108049;28;19919;-73
2023/11/11 10:33:48;;;;;;;;;;;8.70;90.10;;;;;;5109998;28;20312;-73
2023/11/11 10:36:14;;;;;;;;;;;8.80;90.10;;;;;;5109853;28;19912;-73
2023/11/11 10:38:41;;;;;;;;;;;8.90;90.20;;;;;;5109508;28;19916;-72
2023/11/11 10:41:07;;;;;;;;;;;9.00;90.30;;;;;;5110011;28;20342;-72
2023/11/11 10:43:33;;;;;;;;;;;9.20;90.40;;;;;;5109617;28;19920;-72
2023/11/11 10:46:00;;;;;;;;;;;9.40;90.40;;;;;;5108723;28;19915;-72
2023/11/11 10:48:25;;;;;;;;;;;9.50;90.40;;;;;;5106867;28;20003;-72
2023/11/11 10:50:51;;;;;;;;;;;9.60;90.30;;;;;;5109035;28;20006;-72
2023/11/11 10:53:17;;;;;;;;;;;9.70;90.30;;;;;;5108220;28;20363;-72
2023/11/11 10:55:44;;;;;;;;;;;9.80;90.20;;;;;;5106197;28;19922;-72
2023/11/11 10:58:11;;;;;;;;;;;9.80;90.20;;;;;;5108838;28;20053;-71
2023/11/11 11:00:37;;;;;;;;;;;9.80;90.20;;;;;;5106419;28;20378;-75
2023/11/11 11:03:04;;;;;;;;;;;9.70;90.20;;;;;;5108712;28;19966;-82
2023/11/11 11:05:33;;;;;;;;;;;9.70;90.20;;;;;;5099706;28;20022;-81
2023/11/11 11:08:26;;;;;;;;;;;9.60;90.20;;;;;;5070137;28;19920;-78
2023/11/11 11:11:13;;;;;;;;;;;9.60;90.20;;;;;;5070398;28;20001;-79
2023/11/11 11:13:39;;;;;;;;;;;9.60;90.30;;;;;;5070317;28;20385;-78
2023/11/11 11:16:08;;;;;;;;;;;9.70;90.30;;;;;;5089058;28;19913;-76
2023/11/11 11:18:33;;;;;;;;;;;9.60;90.30;;;;;;5072700;28;19951;-78
2023/11/11 11:21:02;;;;;;;;;;;9.70;90.30;;;;;;5069988;28;19959;-77
2023/11/11 11:23:34;;;;;;;;;;;9.70;90.20;;;;;;5088495;28;19908;-80
2023/11/11 11:26:00;;;;;;;;;;;9.70;90.20;;;;;;5089478;28;19908;-80
2023/11/11 11:28:26;;;;;;;;;;;9.70;90.30;;;;;;5102662;28;20340;-75
2023/11/11 11:30:54;;;;;;;;;;;9.80;90.40;;;;;;5108668;28;19919;-75
2023/11/11 11:33:27;;;;;;;;;;;9.90;90.50;;;;;;5109845;28;19920;-76
2023/11/11 11:35:58;;;;;;;;;;;9.90;90.50;;;;;;5111878;28;19937;-74
2023/11/11 11:38:34;;;;;;;;;;;10.10;90.70;;;;;;5090650;28;19919;-78
2023/11/11 11:41:18;;;;;;;;;;;10.20;90.80;;;;;;5104646;28;19912;-78
2023/11/11 11:43:50;;;;;;;;;;;10.40;90.80;;;;;;5094840;28;19922;-81
2023/11/11 11:46:15;;;;;;;;;;;10.50;90.90;;;;;;5109161;28;19941;-81
2023/11/11 11:48:42;;;;;;;;;;;10.70;90.90;;;;;;5089956;28;20368;-80
2023/11/11 11:51:15;;;;;;;;;;;10.80;91.00;;;;;;5108954;28;20383;-80
2023/11/11 11:53:41;;;;;;;;;;;10.90;91.20;;;;;;5109690;28;19912;-73
2023/11/11 11:56:10;;;;;;;;;;;11.10;91.20;;;;;;5109244;28;19961;-82
2023/11/11 11:58:46;;;;;;;;;;;11.30;91.10;;;;;;5091867;28;19962;-81
2023/11/11 12:01:22;;;;;;;;;;;11.40;91.00;;;;;;5110201;28;19919;-82
2023/11/11 12:03:48;;;;;;;;;;;11.60;91.00;;;;;;5109596;28;19999;-82
2023/11/11 12:06:14;;;;;;;;;;;11.70;90.90;;;;;;5102600;28;20257;-81
2023/11/11 12:08:49;;;;;;;;;;;11.80;91.00;;;;;;5092312;28;19977;-79
2023/11/11 12:11:31;;;;;;;;;;;12.10;91.20;;;;;;5071710;28;20174;-79
2023/11/11 12:13:57;;;;;;;;;;;12.30;91.10;;;;;;5089481;28;19912;-78
2023/11/11 12:16:42;;;;;;;;;;;12.50;91.00;;;;;;5089310;28;19919;-77
2023/11/11 12:19:12;;;;;;;;;;;12.50;91.00;;;;;;5071784;28;19934;-79
2023/11/11 12:21:41;;;;;;;;;;;12.50;91.10;;;;;;5070875;28;19962;-76
2023/11/11 12:24:08;;;;;;;;;;;12.50;90.90;;;;;;5089187;28;19915;-80
2023/11/11 12:26:34;;;;;;;;;;;12.50;90.70;;;;;;5054464;28;19916;-77
2023/11/11 12:29:00;;;;;;;;;;;12.40;90.60;;;;;;5089138;28;19977;-78
2023/11/11 12:31:25;;;;;;;;;;;12.30;90.60;;;;;;5070888;28;20352;-77
2023/11/11 12:33:52;;;;;;;;;;;12.10;90.50;;;;;;5088951;28;19944;-78
2023/11/11 12:36:18;;;;;;;;;;;12.10;90.60;;;;;;5088858;28;19909;-76
2023/11/11 12:38:45;;;;;;;;;;;12.10;90.70;;;;;;5069565;28;20259;-78
2023/11/11 12:41:12;;;;;;;;;;;12.00;90.70;;;;;;5088981;28;19916;-80
2023/11/11 12:43:38;;;;;;;;;;;12.00;90.70;;;;;;5072110;28;20007;-68
2023/11/11 12:46:04;;;;;;;;;;;11.90;90.70;;;;;;5090648;28;19965;-81
2023/11/11 12:48:30;;;;;;;;;;;11.90;90.70;;;;;;5092226;28;19920;-77
2023/11/11 12:50:56;;;;;;;;;;;11.90;90.80;;;;;;5090555;28;19945;-78
2023/11/11 12:53:21;;;;;;;;;;;11.90;90.70;;;;;;5109230;28;19912;-76
2023/11/11 12:55:48;;;;;;;;;;;11.90;90.70;;;;;;5094856;28;19912;-79
2023/11/11 12:58:20;;;;;;;;;;;11.90;90.60;;;;;;5113876;28;19999;-81
2023/11/11 13:01:04;;;;;;;;;;;11.80;90.60;;;;;;5096444;28;19915;-81
2023/11/11 13:03:30;;;;;;;;;;;11.70;90.70;;;;;;5097084;28;20003;-78
2023/11/11 13:05:56;;;;;;;;;;;11.70;90.80;;;;;;5094899;28;19908;-78
2023/11/11 13:08:22;;;;;;;;;;;11.70;90.80;;;;;;5114073;28;20007;-78
2023/11/11 13:10:51;;;;;;;;;;;11.70;90.70;;;;;;5094991;28;20002;-79
2023/11/11 13:13:17;;;;;;;;;;;11.70;90.70;;;;;;5112846;28;19923;-75
2023/11/11 13:15:42;;;;;;;;;;;11.70;90.70;;;;;;5113110;28;19968;-77
2023/11/11 13:18:08;;;;;;;;;;;11.70;90.60;;;;;;5112372;28;19920;-81
2023/11/11 13:20:34;;;;;;;;;;;11.70;90.60;;;;;;5112986;28;20358;-78
2023/11/11 13:23:00;;;;;;;;;;;11.70;90.60;;;;;;5113107;28;19912;-78
2023/11/11 13:25:26;;;;;;;;;;;11.50;90.50;;;;;;5111500;28;19950;-78
2023/11/11 13:27:51;;;;;;;;;;;11.40;90.70;;;;;;5111220;28;19930;-78
2023/11/11 13:30:18;;;;;;;;;;;11.20;90.80;;;;;;5093335;28;19942;-76
2023/11/11 13:32:44;;;;;;;;;;;11.30;90.90;;;;;;5111351;28;19932;-77
2023/11/11 13:35:13;;;;;;;;;;;11.30;91.00;;;;;;5113244;28;19936;-81
2023/11/11 13:37:40;;;;;;;;;;;11.30;91.10;;;;;;5093852;28;19922;-73
2023/11/11 13:40:23;;;;;;;;;;;11.30;91.10;;;;;;5110421;28;20266;-71
2023/11/11 13:42:49;;;;;;;;;;;11.30;91.10;;;;;;5092054;28;19914;-75
2023/11/11 13:45:16;;;;;;;;;;;11.30;91.30;;;;;;5092236;28;19916;-71
2023/11/11 13:47:42;;;;;;;;;;;11.40;91.30;;;;;;5075195;28;19911;-72
2023/11/11 13:50:10;;;;;;;;;;;11.40;91.30;;;;;;5111508;28;20335;-74
2023/11/11 13:52:37;;;;;;;;;;;11.40;91.40;;;;;;5110275;28;19939;-71
2023/11/11 13:55:03;;;;;;;;;;;11.40;91.50;;;;;;5110237;28;20006;-72
2023/11/11 13:57:30;;;;;;;;;;;11.40;91.40;;;;;;5092020;28;20007;-72
2023/11/11 13:59:56;;;;;;;;;;;11.50;91.30;;;;;;5110187;28;19919;-71
2023/11/11 14:02:21;;;;;;;;;;;11.40;91.20;;;;;;5109865;28;19912;-72
2023/11/11 14:04:47;;;;;;;;;;;11.40;91.20;;;;;;5109939;28;19912;-72
2023/11/11 14:07:13;;;;;;;;;;;11.30;91.20;;;;;;5109695;28;20395;-75
2023/11/11 14:09:39;;;;;;;;;;;11.20;91.10;;;;;;5110572;28;19927;-76
2023/11/11 14:12:05;;;;;;;;;;;11.00;91.00;;;;;;5110881;28;19929;-73
2023/11/11 14:14:31;;;;;;;;;;;11.00;90.90;;;;;;5092388;28;20445;-72
2023/11/11 14:16:58;;;;;;;;;;;10.90;90.80;;;;;;5091583;28;20274;-72
2023/11/11 14:19:24;;;;;;;;;;;10.80;90.70;;;;;;5091922;28;20007;-72
2023/11/11 14:21:50;;;;;;;;;;;10.70;90.70;;;;;;5110254;28;19987;-72
2023/11/11 14:24:16;;;;;;;;;;;10.50;90.70;;;;;;5109956;28;19919;-72